Time;durP1;ratioP1;P1;durP2;ratioP2;P2;SDS_P1;SDS_P2;PMS_P1;PMS_P2;Temp;Humidity;BMP_temperature;BMP_pressure;BME280_temperature;BME280_humidity;BME280_pressure;Samples;Min_cycle;Max_cycle;Signal;HPM_P1;HPM_P2
2021/03/02 00:00:23;;;;;;;40.45;14.55;;;;;;;-1.84;93.77;102187.39;1714069;83;21042;-44
2021/03/02 00:02:51;;;;;;;55.55;15.30;;;;;;;-1.77;93.79;102178.08;1714004;83;21384;-42
2021/03/02 00:05:19;;;;;;;60.52;13.85;;;;;;;-1.70;93.72;102171.33;1714082;83;21019;-44
2021/03/02 00:07:48;;;;;;;85.20;17.48;;;;;;;-1.64;93.73;102170.80;1714152;83;21042;-42
2021/03/02 00:10:15;;;;;;;95.83;18.32;;;;;;;-1.61;93.71;102164.66;1714022;83;21022;-42
2021/03/02 00:12:43;;;;;;;113.80;18.92;;;;;;;-1.56;93.71;102169.98;1714066;82;21379;-44
2021/03/02 00:15:13;;;;;;;109.45;18.85;;;;;;;-1.51;93.73;102164.80;1714096;83;21440;-45
2021/03/02 00:17:48;;;;;;;113.47;19.00;;;;;;;-1.45;93.67;102162.20;1714093;83;21014;-43
2021/03/02 00:20:24;;;;;;;73.15;16.85;;;;;;;-1.41;93.66;102160.73;1714224;83;26611;-44
2021/03/02 00:23:08;;;;;;;78.28;16.50;;;;;;;-1.37;93.65;102155.03;1714230;83;21038;-43
2021/03/02 00:25:39;;;;;;;146.02;21.35;;;;;;;-1.33;93.61;102151.87;1714089;83;20960;-45
2021/03/02 00:28:09;;;;;;;89.03;16.00;;;;;;;-1.28;93.58;102147.06;1686311;82;21458;-45
2021/03/02 00:30:38;;;;;;;64.32;15.90;;;;;;;-1.25;93.54;102146.38;1714037;83;20962;-45
2021/03/02 00:33:07;;;;;;;126.22;19.05;;;;;;;-1.23;93.52;102149.88;1707393;83;21020;-43
2021/03/02 00:35:36;;;;;;;67.85;16.45;;;;;;;-1.19;93.51;102150.12;1686261;84;21010;-45
2021/03/02 00:38:04;;;;;;;213.07;19.75;;;;;;;-1.13;93.51;102147.06;1706227;84;20952;-44
2021/03/02 00:40:33;;;;;;;85.77;16.10;;;;;;;-1.08;93.49;102135.89;1706104;82;21331;-42
2021/03/02 00:43:01;;;;;;;83.80;16.75;;;;;;;-1.06;93.42;102138.13;1706153;84;20971;-45
2021/03/02 00:45:29;;;;;;;76.05;15.35;;;;;;;-1.03;93.32;102139.56;1706204;84;21015;-44
2021/03/02 00:47:57;;;;;;;74.90;14.18;;;;;;;-0.99;93.24;102133.00;1706251;84;21022;-42
2021/03/02 00:50:26;;;;;;;62.13;13.20;;;;;;;-0.94;93.15;102127.77;1706105;84;21126;-45
2021/03/02 00:52:54;;;;;;;91.95;17.07;;;;;;;-0.92;93.07;102122.37;1706119;84;21373;-45
2021/03/02 00:55:24;;;;;;;63.17;14.35;;;;;;;-0.90;92.87;102120.37;1706128;84;21050;-44
2021/03/02 00:57:53;;;;;;;63.17;13.50;;;;;;;-0.87;92.61;102111.67;1706197;84;20963;-45
2021/03/02 01:00:24;;;;;;;79.25;16.00;;;;;;;-0.83;92.34;102109.29;1705961;84;21055;-45
2021/03/02 01:02:53;;;;;;;43.25;13.70;;;;;;;-0.80;92.13;102110.73;1686014;84;20972;-45
2021/03/02 01:05:21;;;;;;;43.87;13.65;;;;;;;-0.81;91.95;102105.16;1706219;84;21222;-44
2021/03/02 01:07:49;;;;;;;53.80;13.72;;;;;;;-0.79;91.82;102104.84;1706074;84;20991;-43
2021/03/02 01:10:19;;;;;;;29.37;12.75;;;;;;;-0.77;91.59;102100.30;1705926;84;20980;-42
2021/03/02 01:12:50;;;;;;;25.12;12.50;;;;;;;-0.75;91.30;102090.23;1704703;84;21537;-44
2021/03/02 01:15:18;;;;;;;46.45;12.20;;;;;;;-0.72;91.05;102087.84;1706200;84;21071;-42
2021/03/02 01:17:46;;;;;;;60.67;13.08;;;;;;;-0.71;90.81;102094.68;1706144;84;21450;-44
2021/03/02 01:20:15;;;;;;;78.70;13.50;;;;;;;-0.69;90.51;102093.09;1686094;84;21015;-44
2021/03/02 01:22:43;;;;;;;56.02;11.95;;;;;;;-0.66;90.08;102083.08;1706164;83;21146;-43
2021/03/02 01:25:13;;;;;;;75.60;13.90;;;;;;;-0.63;89.84;102086.20;1706093;82;20963;-44
2021/03/02 01:27:40;;;;;;;68.37;12.25;;;;;;;-0.63;89.52;102083.27;1706231;83;21553;-44
2021/03/02 01:30:11;;;;;;;106.80;15.58;;;;;;;-0.59;88.83;102076.66;1706140;83;21374;-43
2021/03/02 01:32:39;;;;;;;108.00;16.10;;;;;;;-0.57;88.65;102084.39;1713071;83;20966;-45
2021/03/02 01:35:10;;;;;;;23.05;9.53;;;;;;;-0.59;88.45;102076.66;1719646;82;21151;-45
2021/03/02 01:37:38;;;;;;;12.63;9.00;;;;;;;-0.60;88.04;102086.36;1719669;83;21014;-42
2021/03/02 01:40:10;;;;;;;12.45;8.43;;;;;;;-0.63;87.44;102083.27;1719657;82;21070;-42
2021/03/02 01:42:37;;;;;;;25.35;10.00;;;;;;;-0.65;87.12;102078.47;1719766;83;21364;-42
2021/03/02 01:45:11;;;;;;;53.28;9.73;;;;;;;-0.65;87.16;102080.16;1719653;82;21046;-42
2021/03/02 01:47:41;;;;;;;17.67;10.32;;;;;;;-0.66;86.94;102077.99;1719749;83;21568;-43
2021/03/02 01:50:11;;;;;;;38.55;11.65;;;;;;;-0.67;86.53;102080.06;1719593;83;21030;-44
2021/03/02 01:52:40;;;;;;;60.50;12.90;;;;;;;-0.66;86.15;102069.09;1719844;83;21078;-44
2021/03/02 01:55:08;;;;;;;41.35;10.93;;;;;;;-0.63;85.92;102073.48;1719879;83;21388;-42
2021/03/02 01:57:36;;;;;;;71.53;13.55;;;;;;;-0.64;85.80;102061.55;1719765;83;21010;-44
2021/03/02 02:00:09;;;;;;;81.75;12.85;;;;;;;-0.63;85.59;102057.84;1719879;83;21018;-43
2021/03/02 02:03:21;;;;;;;75.35;13.08;;;;;;;-0.60;85.31;102052.91;1720050;83;20896;-45
2021/03/02 02:06:00;;;;;;;65.03;13.85;;;;;;;-0.56;85.01;102047.56;1719852;83;20991;-43
2021/03/02 02:09:05;;;;;;;242.68;18.77;;;;;;;-0.54;84.47;102045.11;1719848;83;21387;-43
2021/03/02 02:11:53;;;;;;;107.80;14.90;;;;;;;-0.53;84.32;102041.77;1719745;83;21050;-42
2021/03/02 02:14:46;;;;;;;106.37;15.08;;;;;;;-0.52;84.19;102049.88;1719877;83;21137;-44
2021/03/02 02:17:38;;;;;;;49.75;11.80;;;;;;;-0.50;84.02;102050.84;1719918;83;21053;-44
2021/03/02 02:20:09;;;;;;;67.20;11.97;;;;;;;-0.49;83.77;102051.31;1719838;83;20939;-43
2021/03/02 02:23:03;;;;;;;54.35;12.58;;;;;;;-0.47;83.41;102037.00;1719932;83;22291;-45
2021/03/02 02:25:51;;;;;;;66.28;13.65;;;;;;;-0.44;83.29;102034.61;1719762;83;21045;-42
2021/03/02 02:28:18;;;;;;;69.15;13.03;;;;;;;-0.45;83.19;102025.23;1719809;83;20995;-44
2021/03/02 02:30:51;;;;;;;74.12;13.55;;;;;;;-0.44;83.08;102019.34;1693268;83;21093;-43
2021/03/02 02:33:19;;;;;;;81.12;14.23;;;;;;;-0.43;83.01;102010.91;1719844;83;21015;-43
2021/03/02 02:35:48;;;;;;;80.70;13.03;;;;;;;-0.42;82.92;102003.75;1693713;83;21575;-43
2021/03/02 02:38:17;;;;;;;57.45;12.60;;;;;;;-0.41;82.80;102002.09;1719758;83;20951;-44
2021/03/02 02:40:45;;;;;;;91.25;15.03;;;;;;;-0.39;82.70;102001.36;1693486;83;21030;-42
2021/03/02 02:43:13;;;;;;;119.00;14.78;;;;;;;-0.38;82.69;101991.69;1693693;83;21639;-43
2021/03/02 02:45:41;;;;;;;55.73;13.00;;;;;;;-0.39;82.77;101984.82;1719818;83;21014;-42
2021/03/02 02:48:10;;;;;;;59.80;13.40;;;;;;;-0.38;82.76;101987.88;1719825;83;21205;-44
2021/03/02 02:50:38;;;;;;;77.47;14.28;;;;;;;-0.37;82.76;101981.98;1719660;83;20928;-43
2021/03/02 02:53:07;;;;;;;56.35;14.55;;;;;;;-0.35;82.76;101981.66;1719797;83;20940;-43
2021/03/02 02:55:44;;;;;;;77.10;12.95;;;;;;;-0.35;82.77;101974.41;1693310;83;20971;-42
2021/03/02 02:58:15;;;;;;;49.90;12.70;;;;;;;-0.35;82.74;101975.69;1719925;83;21540;-42
2021/03/02 03:00:42;;;;;;;85.85;14.30;;;;;;;-0.31;82.71;101987.38;1719759;83;21398;-43
2021/03/02 03:03:15;;;;;;;57.90;13.75;;;;;;;-0.28;82.72;101976.46;1719781;83;21054;-44
2021/03/02 03:05:47;;;;;;;40.48;12.50;;;;;;;-0.27;82.64;101979.89;1719825;83;22124;-42
2021/03/02 03:08:21;;;;;;;83.00;14.78;;;;;;;-0.30;82.63;101981.88;1719687;83;20990;-43
2021/03/02 03:10:50;;;;;;;37.10;9.93;;;;;;;-0.28;82.72;101983.23;1720022;83;20927;-44
2021/03/02 03:13:19;;;;;;;87.55;13.93;;;;;;;-0.28;82.82;101985.38;1719876;83;21392;-44
2021/03/02 03:15:51;;;;;;;57.33;13.03;;;;;;;-0.27;82.81;101978.63;1719699;83;21018;-43
2021/03/02 03:18:24;;;;;;;58.78;14.78;;;;;;;-0.25;82.81;101975.75;1719815;83;21034;-43
2021/03/02 03:20:51;;;;;;;31.00;11.20;;;;;;;-0.24;82.83;101974.58;1719753;83;21165;-46
2021/03/02 03:23:20;;;;;;;31.77;13.60;;;;;;;-0.25;82.98;101970.66;1719771;83;20994;-44
2021/03/02 03:25:48;;;;;;;113.55;16.50;;;;;;;-0.27;83.09;101968.44;1719777;83;21211;-42
2021/03/02 03:28:16;;;;;;;46.80;14.13;;;;;;;-0.27;83.17;101968.03;1719711;83;20959;-43
2021/03/02 03:30:44;;;;;;;54.08;14.85;;;;;;;-0.25;83.25;101967.73;1719753;83;20999;-43
2021/03/02 03:33:13;;;;;;;74.05;17.23;;;;;;;-0.27;83.31;101968.44;1690283;83;21038;-44
2021/03/02 03:35:41;;;;;;;86.63;17.70;;;;;;;-0.28;83.39;101949.73;1714152;83;20904;-42
2021/03/02 03:38:09;;;;;;;59.88;15.68;;;;;;;-0.26;83.46;101952.37;1686164;83;21678;-42
2021/03/02 03:40:37;;;;;;;66.62;16.50;;;;;;;-0.25;83.55;101951.58;1714008;82;20945;-43
2021/03/02 03:43:06;;;;;;;78.65;16.27;;;;;;;-0.28;83.66;101952.28;1714178;83;21608;-45
2021/03/02 03:45:33;;;;;;;167.37;20.70;;;;;;;-0.30;83.71;101945.86;1714096;83;21019;-43
2021/03/02 03:48:01;;;;;;;82.27;18.00;;;;;;;-0.27;83.76;101946.39;1714203;83;20931;-43
2021/03/02 03:50:30;;;;;;;107.47;17.92;;;;;;;-0.27;83.91;101945.53;1714173;83;21403;-42
2021/03/02 03:53:01;;;;;;;89.37;17.05;;;;;;;-0.28;83.95;101938.28;1714042;83;21011;-42
2021/03/02 03:55:35;;;;;;;65.10;15.63;;;;;;;-0.28;83.97;101933.19;1714202;83;22323;-43
2021/03/02 03:58:03;;;;;;;70.50;17.00;;;;;;;-0.27;84.02;101931.12;1714038;83;21054;-44
2021/03/02 04:00:31;;;;;;;95.95;18.45;;;;;;;-0.28;84.12;101918.34;1714153;83;21007;-43
2021/03/02 04:02:59;;;;;;;62.55;14.40;;;;;;;-0.31;84.19;101927.57;1714193;83;21525;-44
2021/03/02 04:05:28;;;;;;;260.90;24.27;;;;;;;-0.26;84.17;101926.92;1685985;83;20967;-45
2021/03/02 04:07:56;;;;;;;154.70;20.92;;;;;;;-0.25;84.21;101922.30;1714215;83;20994;-42
2021/03/02 04:10:23;;;;;;;553.52;34.70;;;;;;;-0.24;84.17;101922.39;1686547;83;21082;-43
2021/03/02 04:12:51;;;;;;;479.50;32.15;;;;;;;-0.24;84.10;101912.59;1714094;83;20940;-42
2021/03/02 04:15:21;;;;;;;179.25;21.12;;;;;;;-0.22;84.04;101916.98;1712915;83;21201;-43
2021/03/02 04:17:51;;;;;;;135.70;15.43;;;;;;;-0.21;84.05;101916.17;1714097;83;21018;-44
2021/03/02 04:20:19;;;;;;;64.22;13.80;;;;;;;-0.22;83.99;101914.81;1714096;83;21137;-42
2021/03/02 04:22:48;;;;;;;117.50;15.38;;;;;;;-0.19;83.77;101910.76;1714029;83;21011;-44
2021/03/02 04:25:15;;;;;;;55.03;14.33;;;;;;;-0.13;83.60;101909.30;1714114;83;20947;-45
2021/03/02 04:27:43;;;;;;;194.55;17.35;;;;;;;-0.11;83.34;101909.87;1714117;83;21208;-43
2021/03/02 04:30:13;;;;;;;504.30;38.88;;;;;;;-0.09;83.14;101902.28;1714007;83;20951;-45
2021/03/02 04:32:41;;;;;;;138.97;17.35;;;;;;;-0.07;82.88;101905.78;1714679;83;21027;-44
2021/03/02 04:35:10;;;;;;;129.15;15.20;;;;;;;-0.05;82.70;101899.97;1719673;83;21094;-44
2021/03/02 04:37:38;;;;;;;107.10;14.60;;;;;;;-0.02;82.50;101898.84;1719685;83;21066;-44
2021/03/02 04:40:08;;;;;;;145.50;16.80;;;;;;;-0.02;82.38;101898.84;1719646;82;21383;-45
2021/03/02 04:42:36;;;;;;;73.40;13.62;;;;;;;-0.01;82.10;101886.58;1719644;83;20970;-43
2021/03/02 04:45:06;;;;;;;52.23;10.35;;;;;;;0.02;81.98;101886.26;1719687;83;20963;-42
2021/03/02 04:47:34;;;;;;;47.40;11.25;;;;;;;0.08;81.55;101877.63;1719754;83;21651;-45
2021/03/02 04:50:04;;;;;;;42.73;9.70;;;;;;;0.08;81.20;101875.97;1719715;83;20966;-43
2021/03/02 04:52:32;;;;;;;36.17;10.45;;;;;;;0.10;80.99;101882.00;1719659;83;21341;-45
2021/03/02 04:55:00;;;;;;;38.10;8.63;;;;;;;0.16;80.62;101881.81;1719646;83;20959;-43
2021/03/02 04:57:28;;;;;;;27.13;8.70;;;;;;;0.20;80.24;101867.14;1719726;83;20953;-44
2021/03/02 04:59:56;;;;;;;37.58;11.48;;;;;;;0.21;79.94;101862.14;1719707;83;21077;-43
2021/03/02 05:02:24;;;;;;;21.62;7.67;;;;;;;0.25;79.89;101866.56;1719666;83;20959;-44
2021/03/02 05:04:53;;;;;;;37.17;8.73;;;;;;;0.31;79.61;101872.74;1719706;83;21384;-42
2021/03/02 05:07:20;;;;;;;50.30;8.48;;;;;;;0.30;79.58;101869.34;1719661;83;21034;-44
2021/03/02 05:09:48;;;;;;;35.52;9.10;;;;;;;0.32;79.20;101861.75;1719671;83;20970;-43
2021/03/02 05:12:17;;;;;;;98.55;8.78;;;;;;;0.37;79.02;101872.63;1719681;83;21003;-45
2021/03/02 05:14:45;;;;;;;92.15;9.45;;;;;;;0.43;78.50;101863.98;1719721;83;20979;-44
2021/03/02 05:17:13;;;;;;;211.60;11.45;;;;;;;0.46;78.18;101864.93;1719656;83;21377;-42
2021/03/02 05:19:41;;;;;;;13.70;5.55;;;;;;;0.50;77.79;101858.78;1719650;83;21082;-43
2021/03/02 05:22:08;;;;;;;61.60;9.30;;;;;;;0.55;77.66;101856.45;1719851;83;21632;-42
2021/03/02 05:24:37;;;;;;;45.00;8.05;;;;;;;0.54;77.93;101855.56;1719643;83;21006;-45
2021/03/02 05:27:05;;;;;;;20.82;6.55;;;;;;;0.56;77.85;101845.45;1719671;83;21022;-45
2021/03/02 05:29:34;;;;;;;64.60;7.92;;;;;;;0.57;77.58;101842.95;1719656;83;21214;-42
2021/03/02 05:32:05;;;;;;;33.00;6.55;;;;;;;0.64;77.25;101836.87;1719638;83;21010;-43
2021/03/02 05:34:33;;;;;;;6.95;5.12;;;;;;;0.64;77.21;101827.96;1688636;83;20999;-45
2021/03/02 05:37:02;;;;;;;16.73;5.17;;;;;;;0.66;77.07;101831.45;1714040;82;21027;-45
2021/03/02 05:39:29;;;;;;;5.70;5.17;;;;;;;0.68;76.91;101828.14;1714054;83;21011;-42
2021/03/02 05:41:57;;;;;;;9.33;4.95;;;;;;;0.73;76.66;101827.47;1714043;82;21210;-43
2021/03/02 05:44:25;;;;;;;6.10;5.10;;;;;;;0.69;76.88;101832.43;1714016;83;20991;-43
2021/03/02 05:49:42;;;;;;;6.45;5.35;;;;;;;0.74;76.58;101828.83;1815929;78;23070;-42
2021/03/02 05:52:11;;;;;;;7.08;4.95;;;;;;;0.73;76.62;101823.64;1783952;80;21135;-42
2021/03/02 05:54:40;;;;;;;9.65;5.08;;;;;;;0.77;76.39;101814.93;1788894;80;21207;-45
2021/03/02 05:57:08;;;;;;;11.33;5.03;;;;;;;0.80;76.39;101809.96;1788939;80;20923;-45
2021/03/02 05:59:36;;;;;;;13.80;4.85;;;;;;;0.80;76.49;101806.56;1788965;80;20946;-43
2021/03/02 06:02:04;;;;;;;5.90;5.15;;;;;;;0.77;76.65;101800.91;1788904;80;20998;-45
2021/03/02 06:04:32;;;;;;;5.53;4.40;;;;;;;0.82;76.53;101808.34;1788973;79;21018;-42
2021/03/02 06:07:01;;;;;;;8.73;4.60;;;;;;;0.84;76.33;101799.51;1788890;80;21205;-42
2021/03/02 06:09:29;;;;;;;8.58;5.12;;;;;;;0.83;76.43;101797.77;1788811;80;20989;-43
2021/03/02 06:12:05;;;;;;;4.83;4.35;;;;;;;0.82;76.46;101790.50;1788972;80;20911;-44
2021/03/02 06:14:35;;;;;;;;;;;;;;;0.84;76.40;101789.30;1791530;80;21010;-44
2021/03/02 06:17:04;;;;;;;8.40;4.42;;;;;;;0.90;76.31;101789.98;1788985;80;20143;-45
2021/03/02 06:19:46;;;;;;;7.10;5.12;;;;;;;0.84;76.38;101785.48;1788872;80;21495;-43
2021/03/02 06:22:35;;;;;;;6.20;4.37;;;;;;;0.85;76.30;101781.70;1788946;80;21010;-45
2021/03/02 06:25:06;;;;;;;4.72;3.90;;;;;;;0.86;76.32;101773.25;1788936;80;20962;-45
2021/03/02 06:27:34;;;;;;;6.42;4.58;;;;;;;0.95;76.32;101771.91;1788769;80;20935;-45
2021/03/02 06:30:14;;;;;;;7.35;3.92;;;;;;;1.01;76.15;101764.52;1758400;80;20955;-44
2021/03/02 06:32:52;;;;;;;6.00;4.50;;;;;;;1.10;75.73;101765.31;1788896;80;21207;-46
2021/03/02 06:35:45;;;;;;;4.30;3.90;;;;;;;1.20;75.25;101769.11;1788834;80;20971;-46
2021/03/02 06:38:10;;;;;;;5.22;3.47;;;;;;;1.29;75.32;101769.48;1788527;80;21006;-45
2021/03/02 06:40:46;;;;;;;4.30;3.90;;;;;;;1.37;75.07;101764.70;1787781;80;20939;-43
2021/03/02 06:43:35;;;;;;;5.75;3.45;;;;;;;1.43;74.66;101759.44;1720929;83;21046;-43
2021/03/02 06:46:08;;;;;;;6.67;3.87;;;;;;;1.46;74.63;101747.61;1661477;86;21406;-45
2021/03/02 06:48:56;;;;;;;6.42;3.80;;;;;;;1.59;74.06;101751.09;1761305;80;21000;-44
2021/03/02 06:51:31;;;;;;;3.72;3.35;;;;;;;1.61;73.95;101752.45;1768728;81;21070;-43
2021/03/02 06:54:06;;;;;;;4.28;3.70;;;;;;;1.61;73.78;101749.47;1702723;84;21047;-43
2021/03/02 06:56:38;;;;;;;4.05;3.20;;;;;;;1.63;73.76;101749.13;1702772;84;20913;-45
2021/03/02 06:59:17;;;;;;;4.65;3.80;;;;;;;1.63;73.55;101752.95;1768684;81;21203;-43
2021/03/02 07:01:47;;;;;;;3.98;3.62;;;;;;;1.71;73.68;101749.42;1768185;81;21043;-45
2021/03/02 07:04:17;;;;;;;4.53;3.50;;;;;;;1.77;73.52;101734.77;1768262;81;21063;-42
2021/03/02 07:06:52;;;;;;;6.15;4.03;;;;;;;1.84;73.22;101726.52;1768197;81;21047;-45
2021/03/02 07:09:15;;;;;;;5.80;4.10;;;;;;;1.87;73.10;101725.34;1767179;81;21054;-43
2021/03/02 07:11:43;;;;;;;6.33;3.95;;;;;;;1.91;73.12;101728.51;1768226;81;21271;-45
2021/03/02 07:14:12;;;;;;;5.55;3.72;;;;;;;2.03;72.78;101718.27;1768193;81;20921;-44
2021/03/02 07:16:43;;;;;;;44.45;4.62;;;;;;;2.07;72.16;101722.28;1768231;81;21015;-44
2021/03/02 07:19:16;;;;;;;15.18;3.98;;;;;;;2.06;72.01;101711.59;1768121;81;21489;-44
2021/03/02 07:21:57;;;;;;;12.37;4.33;;;;;;;2.13;71.95;101716.50;1847669;76;23320;-43
2021/03/02 07:24:26;;;;;;;18.82;3.70;;;;;;;2.12;72.11;101718.59;1817006;77;20978;-44
2021/03/02 07:26:57;;;;;;;34.05;4.53;;;;;;;2.24;71.74;101709.23;1817809;79;21416;-44
2021/03/02 07:29:24;;;;;;;7.17;4.05;;;;;;;2.26;72.00;101708.48;1817811;77;20967;-43
2021/03/02 07:31:54;;;;;;;16.87;4.10;;;;;;;2.32;71.88;101716.78;1817920;79;21349;-44
2021/03/02 07:34:23;;;;;;;4.33;3.90;;;;;;;2.41;71.10;101706.02;1817776;79;21360;-45
2021/03/02 07:36:51;;;;;;;10.23;4.40;;;;;;;2.46;70.96;101701.94;1817858;79;20974;-43
2021/03/02 07:39:21;;;;;;;23.95;4.80;;;;;;;2.51;71.05;101702.96;1761676;79;21195;-43
2021/03/02 07:41:50;;;;;;;4.72;4.12;;;;;;;2.55;70.55;101698.41;1792874;79;20954;-43
2021/03/02 07:44:19;;;;;;;17.73;4.03;;;;;;;2.53;70.48;101711.55;1785631;80;20939;-44
2021/03/02 07:46:52;;;;;;;14.18;4.28;;;;;;;2.53;70.70;101705.16;1785603;80;21147;-43
2021/03/02 07:49:31;;;;;;;4.55;3.52;;;;;;;2.51;71.29;101705.52;1785724;80;20998;-42
2021/03/02 07:52:12;;;;;;;17.27;3.67;;;;;;;2.70;71.20;101708.72;1785585;80;21483;-45
2021/03/02 07:54:41;;;;;;;8.18;3.80;;;;;;;2.80;70.49;101709.48;1785570;80;20962;-44
2021/03/02 07:57:21;;;;;;;21.97;4.12;;;;;;;2.82;70.23;101701.44;1785612;80;20979;-45
2021/03/02 08:00:18;;;;;;;68.45;5.80;;;;;;;2.91;69.90;101694.91;1785510;79;20962;-45
2021/03/02 08:03:25;;;;;;;25.85;4.12;;;;;;;2.88;69.51;101689.27;1785696;80;21426;-44
2021/03/02 08:06:26;;;;;;;146.30;9.78;;;;;;;2.91;70.22;101695.77;1785551;80;21253;-44
2021/03/02 08:08:55;;;;;;;33.20;4.20;;;;;;;3.00;69.81;101692.22;1753001;80;20962;-44
2021/03/02 08:11:35;;;;;;;15.30;3.47;;;;;;;3.10;69.39;101703.63;1785619;79;21029;-45
2021/03/02 08:14:24;;;;;;;9.45;3.60;;;;;;;3.20;68.84;101686.03;1785498;80;20938;-45
2021/03/02 08:16:59;;;;;;;10.63;3.47;;;;;;;3.16;68.78;101687.22;1772801;80;20931;-43
2021/03/02 08:19:34;;;;;;;38.65;5.00;;;;;;;3.21;68.88;101682.22;1785803;80;21205;-44
2021/03/02 08:22:05;;;;;;;6.17;3.33;;;;;;;3.21;69.40;101682.64;1775471;79;20922;-45
2021/03/02 08:25:05;;;;;;;3.45;3.15;;;;;;;3.31;68.98;101682.10;1799236;79;21579;-43
2021/03/02 08:27:46;;;;;;;50.73;4.28;;;;;;;3.31;69.15;101680.82;1802860;79;21483;-44
2021/03/02 08:30:22;;;;;;;19.65;3.85;;;;;;;3.36;68.37;101683.53;1802915;79;21475;-43
2021/03/02 08:32:51;;;;;;;6.45;3.75;;;;;;;3.37;69.07;101672.47;1802449;79;21367;-44
2021/03/02 08:35:23;;;;;;;10.08;3.80;;;;;;;3.49;68.86;101679.66;1802329;79;21056;-45
2021/03/02 08:38:01;;;;;;;9.58;3.27;;;;;;;3.50;68.94;101674.99;1802359;78;21001;-43
2021/03/02 08:40:37;;;;;;;8.40;2.92;;;;;;;3.61;68.83;101671.05;1802003;78;20949;-46
2021/03/02 08:43:22;;;;;;;19.67;3.20;;;;;;;3.73;68.75;101669.27;1802436;79;21164;-45
2021/03/02 08:45:55;;;;;;;32.38;3.50;;;;;;;3.89;67.18;101666.73;1802377;79;21387;-43
2021/03/02 08:48:33;;;;;;;8.03;3.40;;;;;;;3.95;66.80;101655.40;1798992;79;21001;-45
2021/03/02 08:51:04;;;;;;;5.33;2.33;;;;;;;4.00;66.61;101664.08;1802327;79;21088;-43
2021/03/02 08:53:44;;;;;;;25.45;3.00;;;;;;;4.04;66.96;101680.38;1802310;78;21562;-46
2021/03/02 08:56:24;;;;;;;29.15;3.15;;;;;;;4.08;66.54;101683.91;1802413;79;21460;-45
2021/03/02 08:58:55;;;;;;;32.53;4.10;;;;;;;4.09;66.16;101668.99;1802340;79;21373;-45
2021/03/02 09:01:30;;;;;;;11.15;3.02;;;;;;;4.06;65.56;101665.06;1802229;79;21044;-44
2021/03/02 09:04:19;;;;;;;15.35;3.50;;;;;;;4.01;65.74;101665.81;1802379;79;20946;-44
2021/03/02 09:06:50;;;;;;;23.60;3.20;;;;;;;3.96;65.62;101662.66;1802395;78;21003;-43
2021/03/02 09:09:20;;;;;;;26.75;3.70;;;;;;;3.84;66.21;101640.12;1802385;79;20973;-45
2021/03/02 09:11:51;;;;;;;3.80;3.10;;;;;;;3.77;66.67;101653.59;1788702;79;21396;-44
2021/03/02 09:14:33;;;;;;;3.90;3.10;;;;;;;3.68;66.48;101655.06;1788502;80;21009;-43
2021/03/02 09:17:02;;;;;;;41.65;4.22;;;;;;;3.64;66.66;101655.77;1788572;80;20989;-45
2021/03/02 09:19:40;;;;;;;64.53;5.17;;;;;;;3.64;66.57;101654.92;1788620;80;21523;-45
2021/03/02 09:22:16;;;;;;;17.82;3.98;;;;;;;3.53;67.04;101655.88;1781782;80;21492;-44
2021/03/02 09:24:47;;;;;;;30.10;3.95;;;;;;;3.37;67.48;101657.97;1780608;80;21155;-45
2021/03/02 09:27:18;;;;;;;4.12;3.33;;;;;;;3.27;67.63;101654.25;1780580;80;21077;-44
2021/03/02 09:29:48;;;;;;;9.33;3.27;;;;;;;3.23;68.18;101656.69;1780577;80;20999;-43
2021/03/02 09:32:30;;;;;;;22.20;4.15;;;;;;;3.30;67.89;101640.69;1780506;80;21018;-46
2021/03/02 09:35:07;;;;;;;5.83;3.85;;;;;;;3.32;67.98;101642.88;1780529;80;20947;-47
2021/03/02 09:37:36;;;;;;;12.25;5.42;;;;;;;3.28;68.15;101641.05;1780506;80;21362;-43
2021/03/02 09:40:07;;;;;;;8.45;4.87;;;;;;;3.19;68.33;101653.16;1780395;79;20982;-46
2021/03/02 09:42:37;;;;;;;4.45;4.05;;;;;;;3.04;69.12;101659.94;1780482;79;20978;-43
2021/03/02 09:45:18;;;;;;;13.20;8.15;;;;;;;3.05;69.40;101653.15;1780456;80;21477;-43
2021/03/02 09:47:48;;;;;;;14.60;5.92;;;;;;;3.02;69.11;101659.02;1780549;79;21030;-46
2021/03/02 09:50:18;;;;;;;22.90;11.50;;;;;;;2.92;69.46;101653.17;1780475;80;21369;-45
2021/03/02 09:52:50;;;;;;;17.32;5.12;;;;;;;2.85;69.66;101651.66;1780448;80;20966;-46
2021/03/02 09:55:24;;;;;;;19.62;7.53;;;;;;;2.84;69.86;101609.00;1780116;80;20975;-44
2021/03/02 09:58:14;;;;;;;29.27;5.28;;;;;;;2.81;69.72;101639.60;1780431;79;21013;-45
2021/03/02 10:00:48;;;;;;;20.65;5.05;;;;;;;2.77;69.96;101640.72;1780209;80;21014;-45
2021/03/02 10:03:22;;;;;;;15.28;4.65;;;;;;;2.67;70.05;101642.13;1780604;80;21181;-45
2021/03/02 10:05:57;;;;;;;25.62;4.58;;;;;;;2.61;70.13;101640.23;1731578;81;21020;-43
2021/03/02 10:08:38;;;;;;;8.60;3.87;;;;;;;2.56;70.93;101629.84;1780437;80;20975;-43
2021/03/02 10:11:18;;;;;;;9.10;4.28;;;;;;;2.46;70.78;101637.14;1761935;81;21107;-42
2021/03/02 10:13:50;;;;;;;6.83;4.15;;;;;;;2.36;71.18;101619.34;1780546;80;21009;-45
2021/03/02 10:16:42;;;;;;;8.95;4.12;;;;;;;2.32;71.58;101621.34;1762050;80;21362;-45
2021/03/02 10:19:22;;;;;;;7.58;4.25;;;;;;;2.32;71.85;101617.51;1761393;80;21923;-43
2021/03/02 10:21:56;;;;;;;7.00;4.17;;;;;;;2.25;71.83;101603.25;1753815;81;20994;-44
2021/03/02 10:24:40;;;;;;;6.60;4.35;;;;;;;2.20;72.36;101604.79;1757282;81;21018;-43
2021/03/02 10:27:19;;;;;;;8.60;4.55;;;;;;;2.22;72.23;101594.21;1757366;80;20974;-44
2021/03/02 10:29:48;;;;;;;4.90;4.37;;;;;;;2.23;72.32;101593.39;1757284;81;21382;-44
2021/03/02 10:32:17;;;;;;;9.80;4.50;;;;;;;2.21;72.49;101584.80;1788470;80;21590;-45
2021/03/02 10:34:45;;;;;;;7.62;5.83;;;;;;;2.25;72.58;101587.92;1788413;80;21021;-46
2021/03/02 10:37:14;;;;;;;6.33;3.90;;;;;;;2.28;72.45;101589.30;1788517;80;21514;-45
2021/03/02 10:39:44;;;;;;;4.75;4.15;;;;;;;2.27;72.09;101575.17;1788162;80;21061;-45
2021/03/02 10:42:12;;;;;;;5.22;4.10;;;;;;;2.33;71.92;101575.80;1788378;78;21193;-45
2021/03/02 10:44:41;;;;;;;7.67;4.80;;;;;;;2.32;72.25;101566.40;1788500;80;20954;-43
2021/03/02 10:47:09;;;;;;;10.70;4.83;;;;;;;2.29;72.33;101553.13;1788530;80;20915;-45
2021/03/02 10:49:37;;;;;;;86.82;5.33;;;;;;;2.27;72.44;101555.63;1788483;80;20919;-45
2021/03/02 10:52:06;;;;;;;13.90;4.40;;;;;;;2.26;72.42;101570.49;1788454;80;20899;-47
2021/03/02 10:54:36;;;;;;;7.92;4.85;;;;;;;2.26;72.74;101566.66;1788422;80;21202;-46
2021/03/02 10:57:04;;;;;;;9.38;5.33;;;;;;;2.24;72.32;101546.97;1788455;80;21057;-44
2021/03/02 10:59:33;;;;;;;29.72;6.37;;;;;;;2.24;72.44;101552.97;1788512;80;20939;-45
2021/03/02 11:02:01;;;;;;;7.80;4.90;;;;;;;2.21;72.72;101546.88;1788455;80;20938;-44
2021/03/02 11:04:29;;;;;;;8.98;5.10;;;;;;;2.14;72.83;101547.06;1788508;80;20942;-45
2021/03/02 11:06:57;;;;;;;16.90;5.60;;;;;;;2.11;73.17;101538.03;1788587;80;21382;-44
2021/03/02 11:09:25;;;;;;;15.03;8.18;;;;;;;2.13;72.94;101547.88;1788484;80;20977;-44
2021/03/02 11:11:53;;;;;;;8.48;5.30;;;;;;;2.01;73.52;101542.84;1788496;79;21061;-44
2021/03/02 11:14:21;;;;;;;20.55;10.40;;;;;;;1.99;73.96;101526.98;1788488;80;21005;-46
2021/03/02 11:16:49;;;;;;;9.28;6.15;;;;;;;1.89;74.22;101521.97;1788613;79;21010;-46
2021/03/02 11:19:17;;;;;;;33.08;14.45;;;;;;;1.84;74.55;101520.55;1764456;80;21395;-44
2021/03/02 11:21:46;;;;;;;13.15;5.90;;;;;;;1.76;74.85;101527.48;1786939;80;21018;-45
2021/03/02 11:24:14;;;;;;;7.92;5.37;;;;;;;1.72;74.99;101507.34;1784872;80;21033;-45
2021/03/02 11:26:43;;;;;;;14.33;6.15;;;;;;;1.68;75.25;101517.87;1784879;80;20961;-46
2021/03/02 11:29:11;;;;;;;11.75;7.70;;;;;;;1.61;75.62;101516.33;1784841;79;20978;-45
2021/03/02 11:31:40;;;;;;;25.15;12.10;;;;;;;1.56;76.11;101522.14;1784879;80;21246;-43
2021/03/02 11:34:08;;;;;;;16.00;9.60;;;;;;;1.58;76.18;101522.17;1784937;80;20954;-45
2021/03/02 11:36:37;;;;;;;24.18;10.25;;;;;;;1.54;76.33;101531.82;1784932;80;20950;-45
2021/03/02 11:39:07;;;;;;;19.37;13.50;;;;;;;1.47;76.51;101526.05;1784643;80;20954;-45
2021/03/02 11:41:35;;;;;;;19.55;11.03;;;;;;;1.41;76.84;101525.01;1784857;79;20966;-43
2021/03/02 11:44:05;;;;;;;15.95;10.25;;;;;;;1.37;76.92;101528.23;1784869;80;21187;-44